sensor_id;sensor_type;location;lat;lon;timestamp;pressure;altitude;pressure_sealevel;temperature;humidity
72124;BME280;59998;37.126;-8.538;2022-09-13T00:04:02;100432.9;;;20.2;94.9
72124;BME280;59998;37.126;-8.538;2022-09-13T00:08:48;100442.7;;;20.2;95.0
72124;BME280;59998;37.126;-8.538;2022-09-13T00:13:34;100438.7;;;20.1;94.4
72124;BME280;59998;37.126;-8.538;2022-09-13T00:18:21;100435.2;;;20.1;94.9
72124;BME280;59998;37.126;-8.538;2022-09-13T00:23:07;100419.6;;;20.2;95.0
72124;BME280;59998;37.126;-8.538;2022-09-13T00:27:53;100422.4;;;20.2;95.2
72124;BME280;59998;37.126;-8.538;2022-09-13T00:32:40;100422.5;;;20.3;94.8
72124;BME280;59998;37.126;-8.538;2022-09-13T00:37:26;100418.1;;;20.3;94.1
72124;BME280;59998;37.126;-8.538;2022-09-13T00:42:13;100423.2;;;20.3;94.6
72124;BME280;59998;37.126;-8.538;2022-09-13T00:47:00;100424.0;;;20.3;94.8
72124;BME280;59998;37.126;-8.538;2022-09-13T00:51:50;100425.6;;;20.3;94.5
72124;BME280;59998;37.126;-8.538;2022-09-13T00:56:41;100424.8;;;20.3;93.9
72124;BME280;59998;37.126;-8.538;2022-09-13T01:01:32;100410.0;;;20.3;94.2
72124;BME280;59998;37.126;-8.538;2022-09-13T01:06:23;100412.8;;;20.3;94.4
72124;BME280;59998;37.126;-8.538;2022-09-13T01:11:15;100411.2;;;20.4;94.5
72124;BME280;59998;37.126;-8.538;2022-09-13T01:16:04;100410.5;;;20.4;93.9
72124;BME280;59998;37.126;-8.538;2022-09-13T01:28:04;100409.3;;;20.4;93.4
72124;BME280;59998;37.126;-8.538;2022-09-13T01:33:23;100404.2;;;20.4;92.7
72124;BME280;59998;37.126;-8.538;2022-09-13T01:38:18;100403.0;;;20.2;92.3
72124;BME280;59998;37.126;-8.538;2022-09-13T01:43:18;100401.4;;;20.3;92.3
72124;BME280;59998;37.126;-8.538;2022-09-13T01:48:12;100402.5;;;20.2;92.0
72124;BME280;59998;37.126;-8.538;2022-09-13T01:53:04;100406.7;;;20.1;91.4
72124;BME280;59998;37.126;-8.538;2022-09-13T01:57:52;100397.8;;;20.1;90.9
72124;BME280;59998;37.126;-8.538;2022-09-13T02:02:45;100409.4;;;20.0;91.7
72124;BME280;59998;37.126;-8.538;2022-09-13T02:07:36;100399.7;;;20.1;92.6
72124;BME280;59998;37.126;-8.538;2022-09-13T02:12:25;100386.5;;;20.1;93.5
72124;BME280;59998;37.126;-8.538;2022-09-13T02:17:15;100391.6;;;20.3;93.7
72124;BME280;59998;37.126;-8.538;2022-09-13T02:22:07;100392.1;;;20.4;93.4
72124;BME280;59998;37.126;-8.538;2022-09-13T02:26:58;100401.1;;;20.4;92.9
72124;BME280;59998;37.126;-8.538;2022-09-13T02:31:50;100403.0;;;20.4;92.9
72124;BME280;59998;37.126;-8.538;2022-09-13T02:36:42;100398.4;;;20.4;93.1
72124;BME280;59998;37.126;-8.538;2022-09-13T02:41:34;100396.8;;;20.4;93.2
72124;BME280;59998;37.126;-8.538;2022-09-13T02:46:33;100392.5;;;20.4;93.8
72124;BME280;59998;37.126;-8.538;2022-09-13T02:51:32;100400.8;;;20.5;93.7
72124;BME280;59998;37.126;-8.538;2022-09-13T02:56:31;100391.3;;;20.4;93.8
72124;BME280;59998;37.126;-8.538;2022-09-13T03:01:21;100398.0;;;20.4;93.6
72124;BME280;59998;37.126;-8.538;2022-09-13T03:06:07;100405.4;;;20.4;93.1
72124;BME280;59998;37.126;-8.538;2022-09-13T03:11:01;100396.4;;;20.4;93.3
72124;BME280;59998;37.126;-8.538;2022-09-13T03:16:02;100401.5;;;20.4;93.2
72124;BME280;59998;37.126;-8.538;2022-09-13T03:20:59;100393.0;;;20.4;92.7
72124;BME280;59998;37.126;-8.538;2022-09-13T03:26:00;100395.3;;;20.5;92.8
72124;BME280;59998;37.126;-8.538;2022-09-13T03:30:52;100387.5;;;20.5;92.5
72124;BME280;59998;37.126;-8.538;2022-09-13T03:35:43;100394.2;;;20.5;92.8
72124;BME280;59998;37.126;-8.538;2022-09-13T03:40:40;100395.7;;;20.6;92.7
72124;BME280;59998;37.126;-8.538;2022-09-13T03:45:30;100394.6;;;20.6;92.8
72124;BME280;59998;37.126;-8.538;2022-09-13T03:50:21;100395.7;;;20.5;92.3
72124;BME280;59998;37.126;-8.538;2022-09-13T03:55:08;100392.5;;;20.4;92.7
72124;BME280;59998;37.126;-8.538;2022-09-13T03:59:55;100392.5;;;20.4;93.1
72124;BME280;59998;37.126;-8.538;2022-09-13T04:04:45;100387.8;;;20.4;93.1
72124;BME280;59998;37.126;-8.538;2022-09-13T04:09:34;100401.9;;;20.4;92.8
72124;BME280;59998;37.126;-8.538;2022-09-13T04:14:20;100400.3;;;20.4;93.0
72124;BME280;59998;37.126;-8.538;2022-09-13T04:19:07;100403.8;;;20.4;93.1
72124;BME280;59998;37.126;-8.538;2022-09-13T04:23:56;100401.9;;;20.4;93.1
72124;BME280;59998;37.126;-8.538;2022-09-13T04:28:42;100398.4;;;20.5;92.7
72124;BME280;59998;37.126;-8.538;2022-09-13T04:33:28;100406.6;;;20.5;93.0
72124;BME280;59998;37.126;-8.538;2022-09-13T04:38:15;100414.1;;;20.6;93.0
72124;BME280;59998;37.126;-8.538;2022-09-13T04:43:01;100407.1;;;20.6;93.2
72124;BME280;59998;37.126;-8.538;2022-09-13T04:47:51;100415.6;;;20.6;93.2
72124;BME280;59998;37.126;-8.538;2022-09-13T04:52:40;100418.4;;;20.6;92.8
72124;BME280;59998;37.126;-8.538;2022-09-13T04:57:26;100415.2;;;20.5;92.5
72124;BME280;59998;37.126;-8.538;2022-09-13T05:02:13;100424.1;;;20.4;92.7
72124;BME280;59998;37.126;-8.538;2022-09-13T05:06:59;100430.3;;;20.4;93.0
72124;BME280;59998;37.126;-8.538;2022-09-13T05:11:45;100434.2;;;20.3;93.1
72124;BME280;59998;37.126;-8.538;2022-09-13T05:16:32;100431.9;;;20.3;92.9
72124;BME280;59998;37.126;-8.538;2022-09-13T05:21:19;100432.3;;;20.4;93.1
72124;BME280;59998;37.126;-8.538;2022-09-13T05:26:05;100444.8;;;20.5;93.4
72124;BME280;59998;37.126;-8.538;2022-09-13T05:30:56;100442.1;;;20.5;93.3
72124;BME280;59998;37.126;-8.538;2022-09-13T05:35:42;100446.0;;;20.5;92.4
72124;BME280;59998;37.126;-8.538;2022-09-13T05:40:29;100450.7;;;20.5;92.3
72124;BME280;59998;37.126;-8.538;2022-09-13T05:45:17;100457.7;;;20.4;92.5
72124;BME280;59998;37.126;-8.538;2022-09-13T05:50:04;100463.1;;;20.4;92.7
72124;BME280;59998;37.126;-8.538;2022-09-13T05:54:50;100470.1;;;20.3;93.3
72124;BME280;59998;37.126;-8.538;2022-09-13T05:59:37;100468.1;;;20.3;93.4
72124;BME280;59998;37.126;-8.538;2022-09-13T06:04:23;100475.1;;;20.4;93.2
72124;BME280;59998;37.126;-8.538;2022-09-13T06:09:11;100470.1;;;20.4;93.0
72124;BME280;59998;37.126;-8.538;2022-09-13T06:13:58;100475.9;;;20.4;92.4
72124;BME280;59998;37.126;-8.538;2022-09-13T06:18:44;100484.5;;;20.3;92.4
72124;BME280;59998;37.126;-8.538;2022-09-13T06:23:31;100486.1;;;20.4;92.7
72124;BME280;59998;37.126;-8.538;2022-09-13T06:28:19;100493.9;;;20.4;92.9
72124;BME280;59998;37.126;-8.538;2022-09-13T06:33:06;100511.0;;;20.4;92.8
72124;BME280;59998;37.126;-8.538;2022-09-13T06:37:53;100500.8;;;20.3;92.3
72124;BME280;59998;37.126;-8.538;2022-09-13T06:42:39;100504.8;;;20.3;92.5
72124;BME280;59998;37.126;-8.538;2022-09-13T06:47:26;100514.5;;;20.3;92.7
72124;BME280;59998;37.126;-8.538;2022-09-13T06:52:12;100519.6;;;20.4;92.4
72124;BME280;59998;37.126;-8.538;2022-09-13T06:56:59;100520.4;;;20.4;92.3
72124;BME280;59998;37.126;-8.538;2022-09-13T07:01:45;100518.5;;;20.4;91.6
72124;BME280;59998;37.126;-8.538;2022-09-13T07:06:33;100521.2;;;20.5;91.2
72124;BME280;59998;37.126;-8.538;2022-09-13T07:11:22;100526.7;;;20.5;90.9
72124;BME280;59998;37.126;-8.538;2022-09-13T07:16:09;100519.6;;;20.4;91.2
72124;BME280;59998;37.126;-8.538;2022-09-13T07:20:59;100531.7;;;20.5;91.3
72124;BME280;59998;37.126;-8.538;2022-09-13T07:25:54;100526.7;;;20.5;91.1
72124;BME280;59998;37.126;-8.538;2022-09-13T07:30:40;100544.3;;;20.2;90.9
72124;BME280;59998;37.126;-8.538;2022-09-13T07:35:26;100548.9;;;20.1;90.6
72124;BME280;59998;37.126;-8.538;2022-09-13T07:40:13;100552.5;;;20.2;90.2
72124;BME280;59998;37.126;-8.538;2022-09-13T07:44:59;100551.6;;;20.4;90.2
72124;BME280;59998;37.126;-8.538;2022-09-13T07:49:45;100556.2;;;20.3;90.0
72124;BME280;59998;37.126;-8.538;2022-09-13T07:54:32;100553.5;;;20.3;90.1
72124;BME280;59998;37.126;-8.538;2022-09-13T07:59:18;100553.2;;;20.5;90.4
72124;BME280;59998;37.126;-8.538;2022-09-13T08:04:06;100563.3;;;20.4;89.4
72124;BME280;59998;37.126;-8.538;2022-09-13T08:08:53;100554.4;;;20.5;88.6
72124;BME280;59998;37.126;-8.538;2022-09-13T08:13:42;100565.9;;;20.7;88.2
72124;BME280;59998;37.126;-8.538;2022-09-13T08:18:29;100569.8;;;20.8;88.8
72124;BME280;59998;37.126;-8.538;2022-09-13T08:23:16;100574.6;;;21.0;89.1
72124;BME280;59998;37.126;-8.538;2022-09-13T08:28:04;100572.4;;;21.1;89.1
72124;BME280;59998;37.126;-8.538;2022-09-13T08:32:54;100574.0;;;21.2;88.8
72124;BME280;59998;37.126;-8.538;2022-09-13T08:37:40;100571.3;;;21.3;87.8
72124;BME280;59998;37.126;-8.538;2022-09-13T08:42:33;100574.9;;;21.3;88.0
72124;BME280;59998;37.126;-8.538;2022-09-13T08:47:34;100584.6;;;21.4;87.4
72124;BME280;59998;37.126;-8.538;2022-09-13T08:52:28;100591.3;;;21.4;87.5
72124;BME280;59998;37.126;-8.538;2022-09-13T08:57:19;100597.1;;;21.4;87.2
72124;BME280;59998;37.126;-8.538;2022-09-13T09:02:20;100608.1;;;21.4;86.8
72124;BME280;59998;37.126;-8.538;2022-09-13T09:07:13;100615.5;;;21.5;86.8
72124;BME280;59998;37.126;-8.538;2022-09-13T09:12:05;100616.7;;;21.4;86.6
72124;BME280;59998;37.126;-8.538;2022-09-13T09:16:57;100628.4;;;21.4;86.3
72124;BME280;59998;37.126;-8.538;2022-09-13T09:21:48;100634.7;;;21.5;86.2
72124;BME280;59998;37.126;-8.538;2022-09-13T09:26:35;100638.2;;;21.6;86.6
72124;BME280;59998;37.126;-8.538;2022-09-13T09:31:27;100645.7;;;21.6;85.4
72124;BME280;59998;37.126;-8.538;2022-09-13T09:36:24;100657.0;;;21.7;85.4
72124;BME280;59998;37.126;-8.538;2022-09-13T09:41:48;100659.8;;;21.7;85.4
72124;BME280;59998;37.126;-8.538;2022-09-13T09:46:37;100659.0;;;21.8;85.0
72124;BME280;59998;37.126;-8.538;2022-09-13T09:51:29;100659.8;;;21.8;84.3
72124;BME280;59998;37.126;-8.538;2022-09-13T09:56:20;100666.9;;;21.9;85.2
72124;BME280;59998;37.126;-8.538;2022-09-13T10:01:15;100670.1;;;22.0;84.0
72124;BME280;59998;37.126;-8.538;2022-09-13T10:06:08;100672.5;;;22.0;82.9
72124;BME280;59998;37.126;-8.538;2022-09-13T10:10:57;100667.8;;;22.2;82.8
72124;BME280;59998;37.126;-8.538;2022-09-13T10:15:54;100673.7;;;22.3;82.3
72124;BME280;59998;37.126;-8.538;2022-09-13T10:20:41;100674.9;;;22.3;81.9
72124;BME280;59998;37.126;-8.538;2022-09-13T10:25:28;100686.6;;;22.3;82.1
72124;BME280;59998;37.126;-8.538;2022-09-13T10:30:29;100678.4;;;22.2;82.7
72124;BME280;59998;37.126;-8.538;2022-09-13T10:35:17;100681.5;;;22.2;82.4
72124;BME280;59998;37.126;-8.538;2022-09-13T10:40:07;100683.5;;;22.3;82.8
72124;BME280;59998;37.126;-8.538;2022-09-13T10:45:00;100674.1;;;22.4;81.9
72124;BME280;59998;37.126;-8.538;2022-09-13T10:49:50;100669.8;;;22.4;81.4
72124;BME280;59998;37.126;-8.538;2022-09-13T10:54:37;100674.9;;;22.4;80.1
72124;BME280;59998;37.126;-8.538;2022-09-13T10:59:25;100672.6;;;22.7;78.4
72124;BME280;59998;37.126;-8.538;2022-09-13T11:09:48;100684.0;;;22.8;77.7
72124;BME280;59998;37.126;-8.538;2022-09-13T11:14:41;100687.1;;;23.0;76.6
72124;BME280;59998;37.126;-8.538;2022-09-13T11:19:55;100681.6;;;23.1;76.6
72124;BME280;59998;37.126;-8.538;2022-09-13T11:24:52;100679.7;;;23.2;74.2
72124;BME280;59998;37.126;-8.538;2022-09-13T11:29:49;100689.0;;;23.1;73.8
72124;BME280;59998;37.126;-8.538;2022-09-13T11:34:43;100685.2;;;23.2;73.7
72124;BME280;59998;37.126;-8.538;2022-09-13T11:39:37;100680.8;;;23.2;74.0
72124;BME280;59998;37.126;-8.538;2022-09-13T11:44:46;100690.6;;;23.5;72.6
72124;BME280;59998;37.126;-8.538;2022-09-13T11:50:22;100676.9;;;23.6;71.9
72124;BME280;59998;37.126;-8.538;2022-09-13T11:55:17;100672.5;;;23.7;71.2
72124;BME280;59998;37.126;-8.538;2022-09-13T12:00:18;100665.8;;;23.7;70.6
72124;BME280;59998;37.126;-8.538;2022-09-13T12:05:11;100663.8;;;23.9;70.7
72124;BME280;59998;37.126;-8.538;2022-09-13T12:10:02;100667.7;;;24.1;71.5
72124;BME280;59998;37.126;-8.538;2022-09-13T12:14:51;100667.2;;;24.2;71.3
72124;BME280;59998;37.126;-8.538;2022-09-13T12:19:45;100675.4;;;24.4;71.2
72124;BME280;59998;37.126;-8.538;2022-09-13T12:24:39;100675.0;;;24.3;71.5
72124;BME280;59998;37.126;-8.538;2022-09-13T12:29:31;100682.8;;;24.4;71.6
72124;BME280;59998;37.126;-8.538;2022-09-13T12:34:22;100676.4;;;24.5;71.7
72124;BME280;59998;37.126;-8.538;2022-09-13T12:40:45;100671.8;;;24.3;71.2
72124;BME280;59998;37.126;-8.538;2022-09-13T12:45:43;100671.9;;;24.1;73.0
72124;BME280;59998;37.126;-8.538;2022-09-13T12:50:50;100673.9;;;24.2;73.4
72124;BME280;59998;37.126;-8.538;2022-09-13T12:55:58;100672.5;;;24.6;72.6
72124;BME280;59998;37.126;-8.538;2022-09-13T13:05:42;100673.3;;;24.5;72.1
72124;BME280;59998;37.126;-8.538;2022-09-13T13:10:34;100667.0;;;24.6;71.3
72124;BME280;59998;37.126;-8.538;2022-09-13T13:17:39;100670.8;;;24.7;71.5
72124;BME280;59998;37.126;-8.538;2022-09-13T13:23:04;100680.8;;;24.5;72.0
72124;BME280;59998;37.126;-8.538;2022-09-13T13:28:02;100672.7;;;24.8;71.8
72124;BME280;59998;37.126;-8.538;2022-09-13T13:33:11;100671.5;;;24.8;71.8
72124;BME280;59998;37.126;-8.538;2022-09-13T13:38:27;100670.0;;;24.7;72.1
72124;BME280;59998;37.126;-8.538;2022-09-13T13:43:29;100663.2;;;24.9;71.4
72124;BME280;59998;37.126;-8.538;2022-09-13T13:48:35;100675.7;;;25.0;70.9
72124;BME280;59998;37.126;-8.538;2022-09-13T13:53:34;100664.8;;;24.8;71.6
72124;BME280;59998;37.126;-8.538;2022-09-13T13:58:29;100664.0;;;24.8;71.4
72124;BME280;59998;37.126;-8.538;2022-09-13T14:03:25;100665.7;;;24.7;71.7
72124;BME280;59998;37.126;-8.538;2022-09-13T14:08:33;100658.3;;;24.6;71.7
72124;BME280;59998;37.126;-8.538;2022-09-13T14:13:40;100661.6;;;24.9;71.3
72124;BME280;59998;37.126;-8.538;2022-09-13T14:18:45;100656.4;;;25.0;71.0
72124;BME280;59998;37.126;-8.538;2022-09-13T14:23:37;100664.0;;;24.9;70.8
72124;BME280;59998;37.126;-8.538;2022-09-13T14:28:24;100669.9;;;24.9;71.3
72124;BME280;59998;37.126;-8.538;2022-09-13T14:33:20;100652.6;;;24.9;71.0
72124;BME280;59998;37.126;-8.538;2022-09-13T14:38:15;100650.3;;;24.8;71.4
72124;BME280;59998;37.126;-8.538;2022-09-13T14:43:20;100666.9;;;24.7;72.0
72124;BME280;59998;37.126;-8.538;2022-09-13T14:48:13;100661.8;;;24.7;71.8
72124;BME280;59998;37.126;-8.538;2022-09-13T14:53:03;100648.5;;;24.6;71.8
72124;BME280;59998;37.126;-8.538;2022-09-13T14:57:52;100648.6;;;24.5;72.0
72124;BME280;59998;37.126;-8.538;2022-09-13T15:02:45;100647.7;;;24.6;71.7
72124;BME280;59998;37.126;-8.538;2022-09-13T15:07:35;100642.1;;;24.7;71.6
72124;BME280;59998;37.126;-8.538;2022-09-13T15:12:24;100643.5;;;24.5;71.5
72124;BME280;59998;37.126;-8.538;2022-09-13T15:17:12;100655.4;;;24.3;72.3
72124;BME280;59998;37.126;-8.538;2022-09-13T15:22:14;100648.7;;;24.2;73.1
72124;BME280;59998;37.126;-8.538;2022-09-13T15:27:05;100658.9;;;24.4;72.7
72124;BME280;59998;37.126;-8.538;2022-09-13T15:31:57;100654.9;;;24.4;72.7
72124;BME280;59998;37.126;-8.538;2022-09-13T15:36:45;100652.5;;;24.5;71.6
72124;BME280;59998;37.126;-8.538;2022-09-13T15:41:34;100656.9;;;24.4;72.2
72124;BME280;59998;37.126;-8.538;2022-09-13T15:46:20;100651.3;;;24.6;71.4
72124;BME280;59998;37.126;-8.538;2022-09-13T15:51:09;100652.9;;;24.5;71.2
72124;BME280;59998;37.126;-8.538;2022-09-13T15:55:57;100649.6;;;24.7;70.5
72124;BME280;59998;37.126;-8.538;2022-09-13T16:00:43;100658.2;;;24.8;69.9
72124;BME280;59998;37.126;-8.538;2022-09-13T16:05:29;100661.5;;;24.5;71.2
72124;BME280;59998;37.126;-8.538;2022-09-13T16:10:17;100654.1;;;24.5;71.3
72124;BME280;59998;37.126;-8.538;2022-09-13T16:15:04;100657.4;;;24.8;70.3
72124;BME280;59998;37.126;-8.538;2022-09-13T16:19:51;100661.7;;;24.8;70.6
72124;BME280;59998;37.126;-8.538;2022-09-13T16:24:37;100651.5;;;24.7;70.5
72124;BME280;59998;37.126;-8.538;2022-09-13T16:29:23;100646.3;;;24.9;69.8
72124;BME280;59998;37.126;-8.538;2022-09-13T16:34:10;100652.5;;;25.0;68.8
72124;BME280;59998;37.126;-8.538;2022-09-13T16:38:56;100673.8;;;24.9;69.1
72124;BME280;59998;37.126;-8.538;2022-09-13T16:43:42;100665.9;;;24.4;71.0
72124;BME280;59998;37.126;-8.538;2022-09-13T16:48:29;100662.3;;;24.5;70.6
72124;BME280;59998;37.126;-8.538;2022-09-13T16:53:15;100676.5;;;24.5;70.7
72124;BME280;59998;37.126;-8.538;2022-09-13T16:58:02;100669.1;;;24.9;69.1
72124;BME280;59998;37.126;-8.538;2022-09-13T17:02:49;100678.5;;;25.0;69.0
72124;BME280;59998;37.126;-8.538;2022-09-13T17:07:36;100681.8;;;25.2;68.0
72124;BME280;59998;37.126;-8.538;2022-09-13T17:12:22;100675.4;;;24.9;68.5
72124;BME280;59998;37.126;-8.538;2022-09-13T17:17:08;100683.7;;;24.8;69.6
72124;BME280;59998;37.126;-8.538;2022-09-13T17:21:55;100689.2;;;25.2;68.4
72124;BME280;59998;37.126;-8.538;2022-09-13T17:26:42;100690.9;;;25.5;66.8
72124;BME280;59998;37.126;-8.538;2022-09-13T17:31:29;100703.5;;;25.5;67.3
72124;BME280;59998;37.126;-8.538;2022-09-13T17:36:18;100693.5;;;25.7;66.2
72124;BME280;59998;37.126;-8.538;2022-09-13T17:41:06;100695.1;;;26.0;65.3
72124;BME280;59998;37.126;-8.538;2022-09-13T17:45:53;100702.4;;;25.9;65.5
72124;BME280;59998;37.126;-8.538;2022-09-13T17:50:39;100707.5;;;25.5;66.3
72124;BME280;59998;37.126;-8.538;2022-09-13T17:55:26;100707.8;;;25.5;66.1
72124;BME280;59998;37.126;-8.538;2022-09-13T18:00:15;100724.8;;;25.0;67.7
72124;BME280;59998;37.126;-8.538;2022-09-13T18:05:01;100716.4;;;25.1;67.5
72124;BME280;59998;37.126;-8.538;2022-09-13T18:09:50;100720.7;;;24.6;68.7
72124;BME280;59998;37.126;-8.538;2022-09-13T18:14:37;100728.4;;;24.3;70.3
72124;BME280;59998;37.126;-8.538;2022-09-13T18:19:23;100723.3;;;24.3;69.9
72124;BME280;59998;37.126;-8.538;2022-09-13T18:24:10;100729.6;;;24.2;69.9
72124;BME280;59998;37.126;-8.538;2022-09-13T18:28:58;100739.8;;;24.1;71.1
72124;BME280;59998;37.126;-8.538;2022-09-13T18:33:45;100735.5;;;24.0;70.8
72124;BME280;59998;37.126;-8.538;2022-09-13T18:38:35;100746.2;;;23.7;72.0
72124;BME280;59998;37.126;-8.538;2022-09-13T18:43:22;100749.0;;;23.5;73.2
72124;BME280;59998;37.126;-8.538;2022-09-13T18:48:08;100750.5;;;23.1;74.0
72124;BME280;59998;37.126;-8.538;2022-09-13T18:52:55;100756.0;;;23.0;74.8
72124;BME280;59998;37.126;-8.538;2022-09-13T18:57:41;100756.0;;;22.7;75.4
72124;BME280;59998;37.126;-8.538;2022-09-13T19:02:28;100757.9;;;22.7;75.9
72124;BME280;59998;37.126;-8.538;2022-09-13T19:07:17;100752.8;;;22.7;75.6
72124;BME280;59998;37.126;-8.538;2022-09-13T19:12:03;100752.4;;;22.6;76.4
72124;BME280;59998;37.126;-8.538;2022-09-13T19:16:50;100752.4;;;22.6;76.7
72124;BME280;59998;37.126;-8.538;2022-09-13T19:21:39;100753.6;;;22.6;76.8
72124;BME280;59998;37.126;-8.538;2022-09-13T19:26:27;100763.8;;;22.7;76.5
72124;BME280;59998;37.126;-8.538;2022-09-13T19:31:13;100773.9;;;22.5;77.3
72124;BME280;59998;37.126;-8.538;2022-09-13T19:36:05;100784.4;;;22.4;78.0
72124;BME280;59998;37.126;-8.538;2022-09-13T19:40:56;100793.4;;;22.3;78.1
72124;BME280;59998;37.126;-8.538;2022-09-13T19:45:43;100795.7;;;22.2;79.0
72124;BME280;59998;37.126;-8.538;2022-09-13T19:50:36;100798.4;;;22.2;78.6
72124;BME280;59998;37.126;-8.538;2022-09-13T19:55:22;100816.4;;;22.2;79.0
72124;BME280;59998;37.126;-8.538;2022-09-13T20:00:12;100812.5;;;22.3;78.5
72124;BME280;59998;37.126;-8.538;2022-09-13T20:04:59;100816.0;;;22.2;79.0
72124;BME280;59998;37.126;-8.538;2022-09-13T20:09:45;100816.3;;;22.0;79.8
72124;BME280;59998;37.126;-8.538;2022-09-13T20:14:32;100820.5;;;21.9;80.6
72124;BME280;59998;37.126;-8.538;2022-09-13T20:19:18;100817.1;;;22.1;80.3
72124;BME280;59998;37.126;-8.538;2022-09-13T20:24:05;100822.2;;;22.1;80.0
72124;BME280;59998;37.126;-8.538;2022-09-13T20:28:53;100838.6;;;22.1;80.1
72124;BME280;59998;37.126;-8.538;2022-09-13T20:33:40;100830.9;;;22.2;80.3
72124;BME280;59998;37.126;-8.538;2022-09-13T20:38:26;100840.3;;;22.3;79.6
72124;BME280;59998;37.126;-8.538;2022-09-13T20:43:13;100840.2;;;22.1;79.7
72124;BME280;59998;37.126;-8.538;2022-09-13T20:48:00;100833.2;;;22.2;79.8
72124;BME280;59998;37.126;-8.538;2022-09-13T20:52:47;100837.9;;;22.1;79.6
72124;BME280;59998;37.126;-8.538;2022-09-13T20:57:33;100837.5;;;22.2;80.0
72124;BME280;59998;37.126;-8.538;2022-09-13T21:02:20;100846.1;;;22.2;79.8
72124;BME280;59998;37.126;-8.538;2022-09-13T21:07:06;100846.2;;;22.3;79.4
72124;BME280;59998;37.126;-8.538;2022-09-13T21:11:52;100845.8;;;22.3;79.3
72124;BME280;59998;37.126;-8.538;2022-09-13T21:16:39;100845.8;;;22.4;79.4
72124;BME280;59998;37.126;-8.538;2022-09-13T21:21:27;100842.7;;;22.4;79.0
72124;BME280;59998;37.126;-8.538;2022-09-13T21:26:15;100846.6;;;22.3;78.9
72124;BME280;59998;37.126;-8.538;2022-09-13T21:31:04;100858.7;;;22.3;79.0
72124;BME280;59998;37.126;-8.538;2022-09-13T21:35:50;100857.9;;;22.2;79.1
72124;BME280;59998;37.126;-8.538;2022-09-13T21:40:42;100853.1;;;22.1;79.4
72124;BME280;59998;37.126;-8.538;2022-09-13T21:45:28;100851.3;;;21.8;80.9
72124;BME280;59998;37.126;-8.538;2022-09-13T21:50:14;100850.5;;;21.8;81.4
72124;BME280;59998;37.126;-8.538;2022-09-13T21:55:01;100850.1;;;21.8;82.0
72124;BME280;59998;37.126;-8.538;2022-09-13T21:59:47;100863.9;;;21.9;81.5
72124;BME280;59998;37.126;-8.538;2022-09-13T22:04:33;100859.9;;;21.8;81.6
72124;BME280;59998;37.126;-8.538;2022-09-13T22:09:21;100856.2;;;21.6;82.2
72124;BME280;59998;37.126;-8.538;2022-09-13T22:14:09;100853.9;;;21.6;82.8
72124;BME280;59998;37.126;-8.538;2022-09-13T22:18:58;100857.8;;;21.6;82.6
72124;BME280;59998;37.126;-8.538;2022-09-13T22:23:45;100857.5;;;21.7;82.3
72124;BME280;59998;37.126;-8.538;2022-09-13T22:28:32;100850.8;;;21.7;82.2
72124;BME280;59998;37.126;-8.538;2022-09-13T22:33:19;100848.9;;;21.7;82.4
72124;BME280;59998;37.126;-8.538;2022-09-13T22:38:05;100844.5;;;21.6;82.5
72124;BME280;59998;37.126;-8.538;2022-09-13T22:42:51;100846.5;;;21.6;82.7
72124;BME280;59998;37.126;-8.538;2022-09-13T22:47:37;100837.8;;;21.6;82.7
72124;BME280;59998;37.126;-8.538;2022-09-13T22:52:24;100840.2;;;21.6;82.8
72124;BME280;59998;37.126;-8.538;2022-09-13T22:57:11;100848.4;;;21.6;82.5
72124;BME280;59998;37.126;-8.538;2022-09-13T23:01:59;100833.1;;;21.5;82.8
72124;BME280;59998;37.126;-8.538;2022-09-13T23:06:46;100836.2;;;21.5;83.2
72124;BME280;59998;37.126;-8.538;2022-09-13T23:11:33;100829.5;;;21.4;83.5
72124;BME280;59998;37.126;-8.538;2022-09-13T23:16:21;100827.6;;;21.5;83.5
72124;BME280;59998;37.126;-8.538;2022-09-13T23:21:08;100836.6;;;21.5;83.4
72124;BME280;59998;37.126;-8.538;2022-09-13T23:26:06;100832.8;;;21.6;83.2
72124;BME280;59998;37.126;-8.538;2022-09-13T23:30:53;100835.5;;;21.6;83.0
72124;BME280;59998;37.126;-8.538;2022-09-13T23:35:39;100822.6;;;21.6;82.3
72124;BME280;59998;37.126;-8.538;2022-09-13T23:40:26;100830.8;;;21.5;83.0
72124;BME280;59998;37.126;-8.538;2022-09-13T23:45:12;100822.3;;;21.6;82.5
72124;BME280;59998;37.126;-8.538;2022-09-13T23:49:59;100823.4;;;21.5;82.2
72124;BME280;59998;37.126;-8.538;2022-09-13T23:54:45;100831.5;;;21.5;82.8
72124;BME280;59998;37.126;-8.538;2022-09-13T23:59:31;100830.0;;;21.5;82.6
